sensor_id;sensor_type;location;lat;lon;timestamp;pressure;altitude;pressure_sealevel;temperature;humidity
24558;BME280;12726;49.148;8.582;2023-02-13T00:01:19;102439.41;;;2.70;100.00
24558;BME280;12726;49.148;8.582;2023-02-13T00:04:04;102434.94;;;2.71;100.00
24558;BME280;12726;49.148;8.582;2023-02-13T00:06:49;102439.41;;;2.70;100.00
24558;BME280;12726;49.148;8.582;2023-02-13T00:09:36;102426.34;;;2.67;100.00
24558;BME280;12726;49.148;8.582;2023-02-13T00:12:22;102430.06;;;2.65;100.00
24558;BME280;12726;49.148;8.582;2023-02-13T00:15:08;102424.75;;;2.65;100.00
24558;BME280;12726;49.148;8.582;2023-02-13T00:17:53;102424.13;;;2.61;100.00
24558;BME280;12726;49.148;8.582;2023-02-13T00:20:38;102427.50;;;2.63;100.00
24558;BME280;12726;49.148;8.582;2023-02-13T00:23:24;102436.47;;;2.62;100.00
24558;BME280;12726;49.148;8.582;2023-02-13T00:26:12;102439.44;;;2.58;100.00
24558;BME280;12726;49.148;8.582;2023-02-13T00:28:58;102439.69;;;2.55;100.00
24558;BME280;12726;49.148;8.582;2023-02-13T00:31:44;102428.41;;;2.51;100.00
24558;BME280;12726;49.148;8.582;2023-02-13T00:34:29;102422.34;;;2.49;100.00
24558;BME280;12726;49.148;8.582;2023-02-13T00:37:15;102429.47;;;2.49;100.00
24558;BME280;12726;49.148;8.582;2023-02-13T00:40:00;102423.75;;;2.42;100.00
24558;BME280;12726;49.148;8.582;2023-02-13T00:42:47;102430.22;;;2.51;100.00
24558;BME280;12726;49.148;8.582;2023-02-13T00:45:32;102426.31;;;2.44;100.00
24558;BME280;12726;49.148;8.582;2023-02-13T00:48:18;102427.13;;;2.57;100.00
24558;BME280;12726;49.148;8.582;2023-02-13T00:51:04;102430.31;;;2.49;100.00
24558;BME280;12726;49.148;8.582;2023-02-13T00:53:49;102431.88;;;2.41;100.00
24558;BME280;12726;49.148;8.582;2023-02-13T00:56:35;102433.03;;;2.36;100.00
24558;BME280;12726;49.148;8.582;2023-02-13T00:59:22;102441.94;;;2.48;100.00
24558;BME280;12726;49.148;8.582;2023-02-13T01:02:07;102447.56;;;2.44;100.00
24558;BME280;12726;49.148;8.582;2023-02-13T01:04:53;102438.13;;;2.40;100.00
24558;BME280;12726;49.148;8.582;2023-02-13T01:07:38;102439.69;;;2.42;100.00
24558;BME280;12726;49.148;8.582;2023-02-13T01:10:24;102439.38;;;2.47;100.00
24558;BME280;12726;49.148;8.582;2023-02-13T01:13:10;102448.38;;;2.57;100.00
24558;BME280;12726;49.148;8.582;2023-02-13T01:15:56;102441.59;;;2.53;100.00
24558;BME280;12726;49.148;8.582;2023-02-13T01:18:42;102445.63;;;2.58;100.00
24558;BME280;12726;49.148;8.582;2023-02-13T01:21:28;102440.53;;;2.55;100.00
24558;BME280;12726;49.148;8.582;2023-02-13T01:24:13;102433.53;;;2.54;100.00
24558;BME280;12726;49.148;8.582;2023-02-13T01:26:58;102438.78;;;2.67;100.00
24558;BME280;12726;49.148;8.582;2023-02-13T01:29:45;102437.44;;;2.61;100.00
24558;BME280;12726;49.148;8.582;2023-02-13T01:32:31;102445.72;;;2.57;100.00
24558;BME280;12726;49.148;8.582;2023-02-13T01:35:17;102430.72;;;2.56;100.00
24558;BME280;12726;49.148;8.582;2023-02-13T01:38:03;102445.63;;;2.58;100.00
24558;BME280;12726;49.148;8.582;2023-02-13T01:40:49;102438.28;;;2.62;100.00
24558;BME280;12726;49.148;8.582;2023-02-13T01:43:44;102441.56;;;2.65;100.00
24558;BME280;12726;49.148;8.582;2023-02-13T01:46:32;102438.91;;;2.65;100.00
24558;BME280;12726;49.148;8.582;2023-02-13T01:49:22;102433.13;;;2.71;100.00
24558;BME280;12726;49.148;8.582;2023-02-13T01:52:10;102432.81;;;2.76;100.00
24558;BME280;12726;49.148;8.582;2023-02-13T01:54:55;102437.28;;;2.75;100.00
24558;BME280;12726;49.148;8.582;2023-02-13T01:57:42;102430.47;;;2.71;100.00
24558;BME280;12726;49.148;8.582;2023-02-13T02:00:32;102422.94;;;2.65;100.00
24558;BME280;12726;49.148;8.582;2023-02-13T02:03:21;102420.38;;;2.64;100.00
24558;BME280;12726;49.148;8.582;2023-02-13T02:06:15;102430.31;;;2.62;100.00
24558;BME280;12726;49.148;8.582;2023-02-13T02:09:05;102432.72;;;2.65;100.00
24558;BME280;12726;49.148;8.582;2023-02-13T02:11:57;102428.16;;;2.67;100.00
24558;BME280;12726;49.148;8.582;2023-02-13T02:14:44;102425.72;;;2.64;100.00
24558;BME280;12726;49.148;8.582;2023-02-13T02:17:30;102430.72;;;2.56;100.00
24558;BME280;12726;49.148;8.582;2023-02-13T02:20:25;102436.13;;;2.67;100.00
24558;BME280;12726;49.148;8.582;2023-02-13T02:23:33;102441.91;;;2.61;100.00
24558;BME280;12726;49.148;8.582;2023-02-13T02:26:56;102436.59;;;2.61;100.00
24558;BME280;12726;49.148;8.582;2023-02-13T02:33:19;102434.03;;;2.59;100.00
24558;BME280;12726;49.148;8.582;2023-02-13T02:36:18;102428.06;;;2.56;100.00
24558;BME280;12726;49.148;8.582;2023-02-13T02:39:12;102430.63;;;2.57;100.00
24558;BME280;12726;49.148;8.582;2023-02-13T02:42:06;102428.59;;;2.61;100.00
24558;BME280;12726;49.148;8.582;2023-02-13T02:44:59;102417.13;;;2.60;100.00
24558;BME280;12726;49.148;8.582;2023-02-13T02:47:53;102418.94;;;2.60;100.00
24558;BME280;12726;49.148;8.582;2023-02-13T02:51:06;102422.34;;;2.62;100.00
24558;BME280;12726;49.148;8.582;2023-02-13T02:54:02;102418.81;;;2.61;100.00
24558;BME280;12726;49.148;8.582;2023-02-13T02:57:12;102417.91;;;2.73;100.00
24558;BME280;12726;49.148;8.582;2023-02-13T02:59:58;102420.38;;;2.77;100.00
24558;BME280;12726;49.148;8.582;2023-02-13T03:03:18;102419.97;;;2.70;100.00
24558;BME280;12726;49.148;8.582;2023-02-13T03:06:26;102420.47;;;2.75;100.00
24558;BME280;12726;49.148;8.582;2023-02-13T03:09:22;102417.06;;;2.73;100.00
24558;BME280;12726;49.148;8.582;2023-02-13T03:12:28;102419.84;;;2.71;100.00
24558;BME280;12726;49.148;8.582;2023-02-13T03:15:36;102419.78;;;2.60;100.00
24558;BME280;12726;49.148;8.582;2023-02-13T03:18:45;102424.03;;;2.63;100.00
24558;BME280;12726;49.148;8.582;2023-02-13T03:21:52;102426.81;;;2.61;100.00
24558;BME280;12726;49.148;8.582;2023-02-13T03:25:05;102433.63;;;2.53;100.00
24558;BME280;12726;49.148;8.582;2023-02-13T03:27:56;102429.66;;;2.58;100.00
24558;BME280;12726;49.148;8.582;2023-02-13T03:31:07;102429.38;;;2.50;100.00
24558;BME280;12726;49.148;8.582;2023-02-13T03:33:58;102434.13;;;2.58;100.00
24558;BME280;12726;49.148;8.582;2023-02-13T03:36:52;102429.78;;;2.57;100.00
24558;BME280;12726;49.148;8.582;2023-02-13T03:40:02;102444.88;;;2.56;100.00
24558;BME280;12726;49.148;8.582;2023-02-13T03:42:52;102439.91;;;2.52;100.00
24558;BME280;12726;49.148;8.582;2023-02-13T03:45:43;102451.78;;;2.59;100.00
24558;BME280;12726;49.148;8.582;2023-02-13T03:48:41;102459.47;;;2.51;100.00
24558;BME280;12726;49.148;8.582;2023-02-13T03:51:51;102462.66;;;2.43;100.00
24558;BME280;12726;49.148;8.582;2023-02-13T03:54:42;102466.28;;;2.42;100.00
24558;BME280;12726;49.148;8.582;2023-02-13T03:57:47;102458.84;;;2.34;100.00
24558;BME280;12726;49.148;8.582;2023-02-13T04:00:54;102468.22;;;2.40;100.00
24558;BME280;12726;49.148;8.582;2023-02-13T04:03:47;102460.56;;;2.35;100.00
24558;BME280;12726;49.148;8.582;2023-02-13T04:06:37;102466.28;;;2.42;100.00
24558;BME280;12726;49.148;8.582;2023-02-13T04:09:26;102474.50;;;2.39;100.00
24558;BME280;12726;49.148;8.582;2023-02-13T04:12:15;102476.50;;;2.35;100.00
24558;BME280;12726;49.148;8.582;2023-02-13T04:15:07;102472.47;;;2.30;100.00
24558;BME280;12726;49.148;8.582;2023-02-13T04:17:58;102482.06;;;2.32;100.00
24558;BME280;12726;49.148;8.582;2023-02-13T04:20:47;102476.63;;;2.34;100.00
24558;BME280;12726;49.148;8.582;2023-02-13T04:23:33;102480.56;;;2.28;100.00
24558;BME280;12726;49.148;8.582;2023-02-13T04:26:22;102469.50;;;2.22;100.00
24558;BME280;12726;49.148;8.582;2023-02-13T04:29:08;102475.56;;;2.24;100.00
24558;BME280;12726;49.148;8.582;2023-02-13T04:31:53;102480.03;;;2.23;100.00
24558;BME280;12726;49.148;8.582;2023-02-13T04:34:38;102472.28;;;2.20;100.00
24558;BME280;12726;49.148;8.582;2023-02-13T04:37:23;102467.81;;;2.21;100.00
24558;BME280;12726;49.148;8.582;2023-02-13T04:40:09;102480.81;;;2.13;100.00
24558;BME280;12726;49.148;8.582;2023-02-13T04:42:56;102469.19;;;2.14;100.00
24558;BME280;12726;49.148;8.582;2023-02-13T04:45:42;102473.13;;;2.08;100.00
24558;BME280;12726;49.148;8.582;2023-02-13T04:48:27;102465.16;;;2.08;100.00
24558;BME280;12726;49.148;8.582;2023-02-13T04:51:13;102461.66;;;2.08;100.00
24558;BME280;12726;49.148;8.582;2023-02-13T04:53:58;102456.88;;;2.00;100.00
24558;BME280;12726;49.148;8.582;2023-02-13T04:56:43;102463.72;;;1.91;100.00
24558;BME280;12726;49.148;8.582;2023-02-13T04:59:30;102459.44;;;2.02;100.00
24558;BME280;12726;49.148;8.582;2023-02-13T05:02:15;102462.94;;;1.89;100.00
24558;BME280;12726;49.148;8.582;2023-02-13T05:05:01;102465.38;;;1.92;100.00
24558;BME280;12726;49.148;8.582;2023-02-13T05:07:46;102468.47;;;1.86;100.00
24558;BME280;12726;49.148;8.582;2023-02-13T05:10:31;102461.97;;;1.78;100.00
24558;BME280;12726;49.148;8.582;2023-02-13T05:13:17;102462.81;;;1.78;100.00
24558;BME280;12726;49.148;8.582;2023-02-13T05:16:06;102471.22;;;1.72;100.00
24558;BME280;12726;49.148;8.582;2023-02-13T05:18:51;102464.53;;;1.67;100.00
24558;BME280;12726;49.148;8.582;2023-02-13T05:21:37;102459.22;;;1.67;100.00
24558;BME280;12726;49.148;8.582;2023-02-13T05:24:40;102455.38;;;1.71;100.00
24558;BME280;12726;49.148;8.582;2023-02-13T05:27:25;102451.25;;;1.67;100.00
24558;BME280;12726;49.148;8.582;2023-02-13T05:30:12;102450.06;;;1.71;100.00
24558;BME280;12726;49.148;8.582;2023-02-13T05:32:59;102445.84;;;1.68;100.00
24558;BME280;12726;49.148;8.582;2023-02-13T05:35:44;102450.91;;;1.71;100.00
24558;BME280;12726;49.148;8.582;2023-02-13T05:38:30;102460.25;;;1.64;100.00
24558;BME280;12726;49.148;8.582;2023-02-13T05:41:15;102463.78;;;1.65;100.00
24558;BME280;12726;49.148;8.582;2023-02-13T05:44:01;102457.84;;;1.61;100.00
24558;BME280;12726;49.148;8.582;2023-02-13T05:46:46;102461.63;;;1.57;100.00
24558;BME280;12726;49.148;8.582;2023-02-13T05:49:33;102452.28;;;1.51;100.00
24558;BME280;12726;49.148;8.582;2023-02-13T05:52:19;102453.03;;;1.53;100.00
24558;BME280;12726;49.148;8.582;2023-02-13T05:55:05;102457.91;;;1.47;100.00
24558;BME280;12726;49.148;8.582;2023-02-13T05:57:55;102451.00;;;1.44;100.00
24558;BME280;12726;49.148;8.582;2023-02-13T06:00:40;102445.69;;;1.44;100.00
24558;BME280;12726;49.148;8.582;2023-02-13T06:03:27;102451.00;;;1.44;100.00
24558;BME280;12726;49.148;8.582;2023-02-13T06:06:14;102445.50;;;1.47;100.00
24558;BME280;12726;49.148;8.582;2023-02-13T06:09:00;102448.25;;;1.46;100.00
24558;BME280;12726;49.148;8.582;2023-02-13T06:11:45;102450.16;;;1.44;100.00
24558;BME280;12726;49.148;8.582;2023-02-13T06:14:31;102448.44;;;1.43;100.00
24558;BME280;12726;49.148;8.582;2023-02-13T06:17:16;102449.88;;;1.48;100.00
24558;BME280;12726;49.148;8.582;2023-02-13T06:20:02;102451.00;;;1.44;100.00
24558;BME280;12726;49.148;8.582;2023-02-13T06:22:50;102446.03;;;1.40;100.00
24558;BME280;12726;49.148;8.582;2023-02-13T06:25:35;102444.22;;;1.40;100.00
24558;BME280;12726;49.148;8.582;2023-02-13T06:28:21;102450.25;;;1.42;100.00
24558;BME280;12726;49.148;8.582;2023-02-13T06:31:06;102456.19;;;1.33;100.00
24558;BME280;12726;49.148;8.582;2023-02-13T06:33:51;102447.28;;;1.34;100.00
24558;BME280;12726;49.148;8.582;2023-02-13T06:36:37;102454.94;;;1.39;100.00
24558;BME280;12726;49.148;8.582;2023-02-13T06:39:24;102454.41;;;1.34;100.00
24558;BME280;12726;49.148;8.582;2023-02-13T06:42:09;102462.44;;;1.32;100.00
24558;BME280;12726;49.148;8.582;2023-02-13T06:44:54;102465.97;;;1.33;100.00
24558;BME280;12726;49.148;8.582;2023-02-13T06:47:40;102455.88;;;1.38;100.00
24558;BME280;12726;49.148;8.582;2023-02-13T06:50:26;102467.09;;;1.29;100.00
24558;BME280;12726;49.148;8.582;2023-02-13T06:53:14;102458.84;;;1.33;100.00
24558;BME280;12726;49.148;8.582;2023-02-13T06:56:03;102465.00;;;1.34;100.00
24558;BME280;12726;49.148;8.582;2023-02-13T06:58:49;102471.59;;;1.41;100.00
24558;BME280;12726;49.148;8.582;2023-02-13T07:01:34;102474.25;;;1.41;100.00
24558;BME280;12726;49.148;8.582;2023-02-13T07:04:19;102473.19;;;1.43;100.00
24558;BME280;12726;49.148;8.582;2023-02-13T07:07:05;102476.16;;;1.39;100.00
24558;BME280;12726;49.148;8.582;2023-02-13T07:09:50;102473.41;;;1.40;100.00
24558;BME280;12726;49.148;8.582;2023-02-13T07:12:37;102475.84;;;1.43;100.00
24558;BME280;12726;49.148;8.582;2023-02-13T07:15:22;102484.38;;;1.48;100.00
24558;BME280;12726;49.148;8.582;2023-02-13T07:18:07;102487.88;;;1.49;100.00
24558;BME280;12726;49.148;8.582;2023-02-13T07:20:53;102484.13;;;1.51;100.00
24558;BME280;12726;49.148;8.582;2023-02-13T07:23:40;102487.78;;;1.63;100.00
24558;BME280;12726;49.148;8.582;2023-02-13T07:26:26;102489.69;;;1.61;100.00
24558;BME280;12726;49.148;8.582;2023-02-13T07:29:12;102483.09;;;1.67;100.00
24558;BME280;12726;49.148;8.582;2023-02-13T07:31:58;102494.06;;;1.62;100.00
24558;BME280;12726;49.148;8.582;2023-02-13T07:34:43;102499.13;;;1.65;100.00
24558;BME280;12726;49.148;8.582;2023-02-13T07:37:29;102493.63;;;1.68;100.00
24558;BME280;12726;49.148;8.582;2023-02-13T07:40:14;102489.19;;;1.69;100.00
24558;BME280;12726;49.148;8.582;2023-02-13T07:43:00;102500.75;;;1.68;100.00
24558;BME280;12726;49.148;8.582;2023-02-13T07:45:47;102489.91;;;1.71;100.00
24558;BME280;12726;49.148;8.582;2023-02-13T07:48:32;102490.22;;;1.79;100.00
24558;BME280;12726;49.148;8.582;2023-02-13T07:51:18;102492.78;;;1.80;100.00
24558;BME280;12726;49.148;8.582;2023-02-13T07:54:03;102489.72;;;1.86;100.00
24558;BME280;12726;49.148;8.582;2023-02-13T07:56:49;102492.38;;;1.86;100.00
24558;BME280;12726;49.148;8.582;2023-02-13T07:59:34;102481.53;;;2.02;100.00
24558;BME280;12726;49.148;8.582;2023-02-13T08:02:21;102488.97;;;2.10;100.00
24558;BME280;12726;49.148;8.582;2023-02-13T08:05:07;102484.28;;;2.13;100.00
24558;BME280;12726;49.148;8.582;2023-02-13T08:07:52;102485.47;;;2.22;100.00
24558;BME280;12726;49.148;8.582;2023-02-13T08:10:39;102480.03;;;2.23;100.00
24558;BME280;12726;49.148;8.582;2023-02-13T08:13:42;102488.75;;;2.25;100.00
24558;BME280;12726;49.148;8.582;2023-02-13T08:16:27;102486.53;;;2.19;100.00
24558;BME280;12726;49.148;8.582;2023-02-13T08:19:14;102487.13;;;2.35;100.00
24558;BME280;12726;49.148;8.582;2023-02-13T08:21:59;102486.47;;;2.57;100.00
24558;BME280;12726;49.148;8.582;2023-02-13T08:24:45;102485.72;;;2.68;100.00
24558;BME280;12726;49.148;8.582;2023-02-13T08:27:30;102482.28;;;3.02;100.00
24558;BME280;12726;49.148;8.582;2023-02-13T08:30:15;102482.78;;;3.07;100.00
24558;BME280;12726;49.148;8.582;2023-02-13T08:33:01;102486.69;;;3.14;100.00
24558;BME280;12726;49.148;8.582;2023-02-13T08:35:47;102482.50;;;3.23;100.00
24558;BME280;12726;49.148;8.582;2023-02-13T08:38:33;102480.09;;;3.55;99.67
24558;BME280;12726;49.148;8.582;2023-02-13T08:41:18;102470.75;;;4.07;96.23
24558;BME280;12726;49.148;8.582;2023-02-13T08:44:05;102472.44;;;4.52;94.44
24558;BME280;12726;49.148;8.582;2023-02-13T08:46:50;102483.31;;;5.26;90.58
24558;BME280;12726;49.148;8.582;2023-02-13T08:49:36;102477.44;;;6.05;82.66
24558;BME280;12726;49.148;8.582;2023-02-13T08:52:22;102477.03;;;6.80;80.31
24558;BME280;12726;49.148;8.582;2023-02-13T08:55:07;102481.16;;;7.80;74.57
24558;BME280;12726;49.148;8.582;2023-02-13T08:57:53;102481.38;;;8.06;73.11
24558;BME280;12726;49.148;8.582;2023-02-13T09:00:38;102487.00;;;9.04;68.02
24558;BME280;12726;49.148;8.582;2023-02-13T09:03:23;102490.38;;;9.60;64.88
24558;BME280;12726;49.148;8.582;2023-02-13T09:06:09;102487.03;;;9.40;62.98
24558;BME280;12726;49.148;8.582;2023-02-13T09:08:56;102495.91;;;9.76;65.16
24558;BME280;12726;49.148;8.582;2023-02-13T09:11:41;102490.78;;;10.34;62.22
24558;BME280;12726;49.148;8.582;2023-02-13T09:14:27;102494.16;;;10.36;60.06
24558;BME280;12726;49.148;8.582;2023-02-13T09:17:12;102491.81;;;10.75;60.03
24558;BME280;12726;49.148;8.582;2023-02-13T09:20:01;102489.97;;;11.50;57.72
24558;BME280;12726;49.148;8.582;2023-02-13T09:22:46;102483.56;;;11.92;55.00
24558;BME280;12726;49.148;8.582;2023-02-13T09:25:33;102484.88;;;11.47;55.25
24558;BME280;12726;49.148;8.582;2023-02-13T09:28:19;102484.38;;;11.44;56.62
24558;BME280;12726;49.148;8.582;2023-02-13T09:31:05;102480.16;;;12.06;56.06
24558;BME280;12726;49.148;8.582;2023-02-13T09:33:50;102478.50;;;11.89;53.75
24558;BME280;12726;49.148;8.582;2023-02-13T09:36:36;102486.19;;;12.16;53.60
24558;BME280;12726;49.148;8.582;2023-02-13T09:39:21;102481.09;;;12.76;51.38
24558;BME280;12726;49.148;8.582;2023-02-13T09:42:15;102487.28;;;13.24;51.40
24558;BME280;12726;49.148;8.582;2023-02-13T09:45:03;102484.34;;;13.33;50.06
24558;BME280;12726;49.148;8.582;2023-02-13T09:47:50;102493.59;;;13.39;50.05
24558;BME280;12726;49.148;8.582;2023-02-13T09:50:35;102499.56;;;13.35;50.07
24558;BME280;12726;49.148;8.582;2023-02-13T09:53:23;102492.63;;;13.32;50.82
24558;BME280;12726;49.148;8.582;2023-02-13T09:56:15;102486.69;;;13.06;49.89
24558;BME280;12726;49.148;8.582;2023-02-13T09:59:15;102497.75;;;13.27;49.84
24558;BME280;12726;49.148;8.582;2023-02-13T10:02:23;102502.16;;;13.88;47.33
24558;BME280;12726;49.148;8.582;2023-02-13T10:05:26;102495.22;;;13.71;48.85
24558;BME280;12726;49.148;8.582;2023-02-13T10:08:30;102489.94;;;14.07;46.73
24558;BME280;12726;49.148;8.582;2023-02-13T10:11:31;102492.44;;;14.46;47.08
24558;BME280;12726;49.148;8.582;2023-02-13T10:14:23;102492.38;;;14.54;47.38
24558;BME280;12726;49.148;8.582;2023-02-13T10:17:13;102494.03;;;14.70;46.32
24558;BME280;12726;49.148;8.582;2023-02-13T10:20:04;102494.91;;;15.49;44.09
24558;BME280;12726;49.148;8.582;2023-02-13T10:22:54;102497.06;;;16.30;42.01
24558;BME280;12726;49.148;8.582;2023-02-13T10:25:43;102495.31;;;14.88;44.02
24558;BME280;12726;49.148;8.582;2023-02-13T10:28:33;102492.41;;;14.90;44.04
24558;BME280;12726;49.148;8.582;2023-02-13T10:31:23;102486.63;;;15.36;44.25
24558;BME280;12726;49.148;8.582;2023-02-13T10:34:13;102480.72;;;15.47;43.20
24558;BME280;12726;49.148;8.582;2023-02-13T10:37:00;102480.41;;;14.63;44.57
24558;BME280;12726;49.148;8.582;2023-02-13T10:39:47;102479.63;;;14.69;45.70
24558;BME280;12726;49.148;8.582;2023-02-13T10:42:38;102477.81;;;15.27;43.84
24558;BME280;12726;49.148;8.582;2023-02-13T10:45:52;102475.66;;;15.44;43.13
24558;BME280;12726;49.148;8.582;2023-02-13T10:49:03;102466.94;;;17.27;39.58
24558;BME280;12726;49.148;8.582;2023-02-13T10:52:00;102470.00;;;16.16;40.38
24558;BME280;12726;49.148;8.582;2023-02-13T10:55:03;102457.19;;;16.37;42.22
24558;BME280;12726;49.148;8.582;2023-02-13T10:58:03;102457.88;;;16.12;40.89
24558;BME280;12726;49.148;8.582;2023-02-13T11:00:55;102454.09;;;16.47;40.60
24558;BME280;12726;49.148;8.582;2023-02-13T11:03:41;102456.28;;;17.32;40.21
24558;BME280;12726;49.148;8.582;2023-02-13T11:06:29;102446.84;;;17.21;39.47
24558;BME280;12726;49.148;8.582;2023-02-13T11:09:15;102441.41;;;17.35;38.78
24558;BME280;12726;49.148;8.582;2023-02-13T11:12:22;102441.41;;;17.21;38.85
24558;BME280;12726;49.148;8.582;2023-02-13T11:15:20;102445.41;;;18.05;39.31
24558;BME280;12726;49.148;8.582;2023-02-13T11:18:12;102446.53;;;18.68;37.17
24558;BME280;12726;49.148;8.582;2023-02-13T11:21:01;102442.28;;;18.72;36.44
24558;BME280;12726;49.148;8.582;2023-02-13T11:23:51;102444.81;;;19.43;35.34
24558;BME280;12726;49.148;8.582;2023-02-13T11:26:38;102439.41;;;18.98;36.14
24558;BME280;12726;49.148;8.582;2023-02-13T11:29:25;102440.38;;;19.73;34.35
24558;BME280;12726;49.148;8.582;2023-02-13T11:32:20;102435.16;;;19.90;34.20
24558;BME280;12726;49.148;8.582;2023-02-13T11:35:25;102444.75;;;20.42;32.58
24558;BME280;12726;49.148;8.582;2023-02-13T11:38:17;102443.00;;;19.86;34.03
24558;BME280;12726;49.148;8.582;2023-02-13T11:41:08;102434.00;;;19.54;34.25
24558;BME280;12726;49.148;8.582;2023-02-13T11:43:55;102436.38;;;19.51;34.23
24558;BME280;12726;49.148;8.582;2023-02-13T11:46:46;102422.31;;;20.33;33.00
24558;BME280;12726;49.148;8.582;2023-02-13T11:49:34;102421.75;;;20.07;34.42
24558;BME280;12726;49.148;8.582;2023-02-13T11:52:24;102416.72;;;20.04;34.23
24558;BME280;12726;49.148;8.582;2023-02-13T11:55:26;102413.16;;;21.36;31.45
24558;BME280;12726;49.148;8.582;2023-02-13T11:58:24;102413.91;;;20.35;32.92
24558;BME280;12726;49.148;8.582;2023-02-13T12:01:23;102406.16;;;21.10;32.23
24558;BME280;12726;49.148;8.582;2023-02-13T12:04:14;102409.25;;;21.78;30.90
24558;BME280;12726;49.148;8.582;2023-02-13T12:07:02;102419.25;;;21.84;31.06
24558;BME280;12726;49.148;8.582;2023-02-13T12:09:53;102412.00;;;21.14;31.13
24558;BME280;12726;49.148;8.582;2023-02-13T12:12:43;102404.38;;;20.56;31.86
24558;BME280;12726;49.148;8.582;2023-02-13T12:15:32;102396.38;;;20.73;31.72
24558;BME280;12726;49.148;8.582;2023-02-13T12:18:24;102401.84;;;19.57;34.63
24558;BME280;12726;49.148;8.582;2023-02-13T12:21:26;102402.88;;;21.20;31.21
24558;BME280;12726;49.148;8.582;2023-02-13T12:24:24;102388.72;;;20.93;31.93
24558;BME280;12726;49.148;8.582;2023-02-13T12:27:21;102396.94;;;20.93;32.07
24558;BME280;12726;49.148;8.582;2023-02-13T12:33:45;102392.56;;;21.80;30.35
24558;BME280;12726;49.148;8.582;2023-02-13T12:36:44;102392.22;;;21.65;30.81
24558;BME280;12726;49.148;8.582;2023-02-13T12:39:33;102389.09;;;20.66;32.29
24558;BME280;12726;49.148;8.582;2023-02-13T12:42:27;102378.47;;;20.22;33.12
24558;BME280;12726;49.148;8.582;2023-02-13T12:45:29;102385.72;;;17.90;37.01
24558;BME280;12726;49.148;8.582;2023-02-13T12:48:27;102379.69;;;17.62;38.30
24558;BME280;12726;49.148;8.582;2023-02-13T12:51:27;102380.66;;;17.01;38.74
24558;BME280;12726;49.148;8.582;2023-02-13T12:54:40;102366.16;;;16.68;39.79
24558;BME280;12726;49.148;8.582;2023-02-13T12:57:41;102372.81;;;16.18;39.79
24558;BME280;12726;49.148;8.582;2023-02-13T13:00:42;102364.53;;;15.63;41.77
24558;BME280;12726;49.148;8.582;2023-02-13T13:03:38;102365.84;;;15.18;42.89
24558;BME280;12726;49.148;8.582;2023-02-13T13:06:43;102365.47;;;14.14;45.11
24558;BME280;12726;49.148;8.582;2023-02-13T13:09:51;102371.63;;;13.26;47.55
24558;BME280;12726;49.148;8.582;2023-02-13T13:12:45;102351.56;;;12.98;48.11
24558;BME280;12726;49.148;8.582;2023-02-13T13:15:37;102353.88;;;13.01;49.32
24558;BME280;12726;49.148;8.582;2023-02-13T13:18:36;102355.97;;;12.68;50.47
24558;BME280;12726;49.148;8.582;2023-02-13T13:21:31;102348.97;;;12.50;50.82
24558;BME280;12726;49.148;8.582;2023-02-13T13:24:33;102354.75;;;12.47;51.86
24558;BME280;12726;49.148;8.582;2023-02-13T13:27:26;102348.56;;;12.39;52.34
24558;BME280;12726;49.148;8.582;2023-02-13T13:30:15;102345.84;;;12.39;52.36
24558;BME280;12726;49.148;8.582;2023-02-13T13:33:04;102351.16;;;11.85;54.03
24558;BME280;12726;49.148;8.582;2023-02-13T13:36:00;102346.56;;;11.94;54.39
24558;BME280;12726;49.148;8.582;2023-02-13T13:38:59;102342.19;;;11.93;54.97
24558;BME280;12726;49.148;8.582;2023-02-13T13:41:52;102348.53;;;12.08;54.11
24558;BME280;12726;49.148;8.582;2023-02-13T13:48:05;102346.50;;;12.10;53.75
24558;BME280;12726;49.148;8.582;2023-02-13T13:50:58;102352.59;;;12.04;54.37
24558;BME280;12726;49.148;8.582;2023-02-13T13:54:17;102352.13;;;12.00;54.28
24558;BME280;12726;49.148;8.582;2023-02-13T13:57:06;102351.63;;;11.97;54.31
24558;BME280;12726;49.148;8.582;2023-02-13T14:00:22;102346.72;;;12.00;54.73
24558;BME280;12726;49.148;8.582;2023-02-13T14:03:23;102346.50;;;12.10;54.82
24558;BME280;12726;49.148;8.582;2023-02-13T14:06:10;102344.28;;;12.22;54.61
24558;BME280;12726;49.148;8.582;2023-02-13T14:08:59;102332.50;;;12.14;54.66
24558;BME280;12726;49.148;8.582;2023-02-13T14:11:45;102329.88;;;11.90;55.33
24558;BME280;12726;49.148;8.582;2023-02-13T14:14:50;102334.69;;;11.56;56.36
24558;BME280;12726;49.148;8.582;2023-02-13T14:17:53;102324.91;;;11.47;56.88
24558;BME280;12726;49.148;8.582;2023-02-13T14:20:41;102331.69;;;11.18;58.30
24558;BME280;12726;49.148;8.582;2023-02-13T14:23:35;102335.06;;;11.20;58.48
24558;BME280;12726;49.148;8.582;2023-02-13T14:26:30;102330.16;;;11.16;58.78
24558;BME280;12726;49.148;8.582;2023-02-13T14:29:23;102327.81;;;11.13;59.37
24558;BME280;12726;49.148;8.582;2023-02-13T14:32:22;102320.56;;;11.13;59.08
24558;BME280;12726;49.148;8.582;2023-02-13T14:35:16;102318.88;;;11.04;59.67
24558;BME280;12726;49.148;8.582;2023-02-13T14:38:04;102314.00;;;10.99;60.56
24558;BME280;12726;49.148;8.582;2023-02-13T14:40:51;102308.13;;;10.80;60.62
24558;BME280;12726;49.148;8.582;2023-02-13T14:43:45;102300.22;;;10.86;61.15
24558;BME280;12726;49.148;8.582;2023-02-13T14:46:36;102299.16;;;10.87;61.74
24558;BME280;12726;49.148;8.582;2023-02-13T14:49:27;102296.31;;;10.89;61.21
24558;BME280;12726;49.148;8.582;2023-02-13T14:52:17;102295.13;;;10.75;61.97
24558;BME280;12726;49.148;8.582;2023-02-13T14:55:06;102294.28;;;10.75;62.66
24558;BME280;12726;49.148;8.582;2023-02-13T14:58:01;102290.41;;;10.69;63.21
24558;BME280;12726;49.148;8.582;2023-02-13T15:00:52;102297.34;;;10.72;63.07
24558;BME280;12726;49.148;8.582;2023-02-13T15:03:43;102294.94;;;10.60;63.07